Strait Of Dover, United Kingdom
Current Conditions -  °F | °C
As of 12:20 PM on Monday 26 Jan 2015 (Local Time) from EGMD Reporting Station
Broken Clouds Broken Clouds  
Wind Chill: 12°   Ceiling: 2000
Heat Index: 12°   Visibility: 6mi
Dew Point: 10°   Wind: 15mph
Humidity: 88%   Direction: 310°NW
Pressure: 30.18"   Gusts: NA
Location:  51°N, 1.42°E
Report Text: EGMD 261220Z 31013KT 9999 SCT014 BKN020 12/10 Q1022
Loading
Personal Weather Stations






























Interactive Weather Map New forecast layout! Learn more

10-Day Weather Forecast

Advertisements
Track Severe Weather on mobile